sensor_id;sensor_type;location;lat;lon;timestamp;P1;durP1;ratioP1;P2;durP2;ratioP2
76856;SDS011;66179;44.686;37.628;2023-02-01T00:00:29;23.30;;;9.93;;
76856;SDS011;66179;44.686;37.628;2023-02-01T00:02:56;21.05;;;9.95;;
76856;SDS011;66179;44.686;37.628;2023-02-01T00:05:23;21.85;;;9.63;;
76856;SDS011;66179;44.686;37.628;2023-02-01T00:07:49;23.35;;;9.75;;
76856;SDS011;66179;44.686;37.628;2023-02-01T00:10:16;24.20;;;10.23;;
76856;SDS011;66179;44.686;37.628;2023-02-01T00:12:43;21.60;;;8.87;;
76856;SDS011;66179;44.686;37.628;2023-02-01T00:15:11;23.17;;;8.68;;
76856;SDS011;66179;44.686;37.628;2023-02-01T00:17:38;21.45;;;8.85;;
76856;SDS011;66179;44.686;37.628;2023-02-01T00:20:05;21.17;;;9.13;;
76856;SDS011;66179;44.686;37.628;2023-02-01T00:22:32;19.42;;;8.98;;
76856;SDS011;66179;44.686;37.628;2023-02-01T00:24:59;21.57;;;8.90;;
76856;SDS011;66179;44.686;37.628;2023-02-01T00:27:26;20.75;;;9.13;;
76856;SDS011;66179;44.686;37.628;2023-02-01T00:29:54;19.70;;;8.82;;
76856;SDS011;66179;44.686;37.628;2023-02-01T00:32:21;18.48;;;8.32;;
76856;SDS011;66179;44.686;37.628;2023-02-01T00:34:48;20.40;;;8.63;;
76856;SDS011;66179;44.686;37.628;2023-02-01T00:37:15;20.47;;;8.50;;
76856;SDS011;66179;44.686;37.628;2023-02-01T00:39:41;21.67;;;9.05;;
76856;SDS011;66179;44.686;37.628;2023-02-01T00:42:08;19.98;;;8.23;;
76856;SDS011;66179;44.686;37.628;2023-02-01T00:44:36;20.52;;;8.60;;
76856;SDS011;66179;44.686;37.628;2023-02-01T00:47:02;21.27;;;9.75;;
76856;SDS011;66179;44.686;37.628;2023-02-01T00:49:29;21.67;;;9.20;;
76856;SDS011;66179;44.686;37.628;2023-02-01T00:51:56;19.92;;;9.20;;
76856;SDS011;66179;44.686;37.628;2023-02-01T00:54:23;16.88;;;7.85;;
76856;SDS011;66179;44.686;37.628;2023-02-01T00:56:49;19.92;;;8.68;;
76856;SDS011;66179;44.686;37.628;2023-02-01T00:59:18;20.23;;;8.90;;
76856;SDS011;66179;44.686;37.628;2023-02-01T01:01:45;19.43;;;8.67;;
76856;SDS011;66179;44.686;37.628;2023-02-01T01:04:12;20.15;;;9.25;;
76856;SDS011;66179;44.686;37.628;2023-02-01T01:06:38;20.00;;;8.75;;
76856;SDS011;66179;44.686;37.628;2023-02-01T01:09:06;18.80;;;8.27;;
76856;SDS011;66179;44.686;37.628;2023-02-01T01:11:35;19.60;;;9.00;;
76856;SDS011;66179;44.686;37.628;2023-02-01T01:14:04;20.53;;;8.97;;
76856;SDS011;66179;44.686;37.628;2023-02-01T01:16:32;22.23;;;9.63;;
76856;SDS011;66179;44.686;37.628;2023-02-01T01:19:00;22.50;;;9.27;;
76856;SDS011;66179;44.686;37.628;2023-02-01T01:21:27;19.40;;;8.70;;
76856;SDS011;66179;44.686;37.628;2023-02-01T01:23:54;20.80;;;9.57;;
76856;SDS011;66179;44.686;37.628;2023-02-01T01:26:23;19.97;;;9.33;;
76856;SDS011;66179;44.686;37.628;2023-02-01T01:28:51;21.45;;;9.45;;
76856;SDS011;66179;44.686;37.628;2023-02-01T01:31:19;22.17;;;9.55;;
76856;SDS011;66179;44.686;37.628;2023-02-01T01:33:54;21.60;;;9.40;;
76856;SDS011;66179;44.686;37.628;2023-02-01T01:36:22;20.83;;;9.15;;
76856;SDS011;66179;44.686;37.628;2023-02-01T01:38:50;22.40;;;9.63;;
76856;SDS011;66179;44.686;37.628;2023-02-01T01:41:18;20.42;;;8.90;;
76856;SDS011;66179;44.686;37.628;2023-02-01T01:43:49;19.13;;;8.50;;
76856;SDS011;66179;44.686;37.628;2023-02-01T01:46:32;18.73;;;8.07;;
76856;SDS011;66179;44.686;37.628;2023-02-01T01:51:33;19.93;;;9.10;;
76856;SDS011;66179;44.686;37.628;2023-02-01T01:54:09;19.17;;;8.15;;
76856;SDS011;66179;44.686;37.628;2023-02-01T01:56:43;19.98;;;8.00;;
76856;SDS011;66179;44.686;37.628;2023-02-01T01:59:14;18.98;;;7.90;;
76856;SDS011;66179;44.686;37.628;2023-02-01T02:01:41;17.50;;;7.80;;
76856;SDS011;66179;44.686;37.628;2023-02-01T02:04:08;20.80;;;8.87;;
76856;SDS011;66179;44.686;37.628;2023-02-01T02:06:49;17.35;;;7.93;;
76856;SDS011;66179;44.686;37.628;2023-02-01T02:09:22;18.58;;;8.00;;
76856;SDS011;66179;44.686;37.628;2023-02-01T02:11:49;18.95;;;8.25;;
76856;SDS011;66179;44.686;37.628;2023-02-01T02:14:17;19.35;;;8.18;;
76856;SDS011;66179;44.686;37.628;2023-02-01T02:16:54;20.57;;;7.47;;
76856;SDS011;66179;44.686;37.628;2023-02-01T02:33:52;20.55;;;8.27;;
76856;SDS011;66179;44.686;37.628;2023-02-01T02:45:30;24.50;;;8.83;;
76856;SDS011;66179;44.686;37.628;2023-02-01T02:54:18;18.30;;;7.18;;
76856;SDS011;66179;44.686;37.628;2023-02-01T02:57:08;15.85;;;6.95;;
76856;SDS011;66179;44.686;37.628;2023-02-01T03:00:00;20.10;;;7.20;;
76856;SDS011;66179;44.686;37.628;2023-02-01T03:02:49;20.35;;;6.97;;
76856;SDS011;66179;44.686;37.628;2023-02-01T03:05:40;22.48;;;7.72;;
76856;SDS011;66179;44.686;37.628;2023-02-01T03:08:14;23.30;;;7.85;;
76856;SDS011;66179;44.686;37.628;2023-02-01T03:10:51;19.63;;;7.82;;
76856;SDS011;66179;44.686;37.628;2023-02-01T03:16:26;18.58;;;7.78;;
76856;SDS011;66179;44.686;37.628;2023-02-01T03:21:39;17.90;;;7.15;;
76856;SDS011;66179;44.686;37.628;2023-02-01T03:24:18;16.55;;;7.22;;
76856;SDS011;66179;44.686;37.628;2023-02-01T03:27:22;19.10;;;7.23;;
76856;SDS011;66179;44.686;37.628;2023-02-01T03:30:02;17.15;;;6.93;;
76856;SDS011;66179;44.686;37.628;2023-02-01T03:32:34;19.48;;;7.65;;
76856;SDS011;66179;44.686;37.628;2023-02-01T03:37:56;17.85;;;7.20;;
76856;SDS011;66179;44.686;37.628;2023-02-01T03:40:50;15.47;;;6.73;;
76856;SDS011;66179;44.686;37.628;2023-02-01T03:43:22;15.25;;;6.55;;
76856;SDS011;66179;44.686;37.628;2023-02-01T03:45:54;16.90;;;6.43;;
76856;SDS011;66179;44.686;37.628;2023-02-01T03:48:27;14.38;;;6.22;;
76856;SDS011;66179;44.686;37.628;2023-02-01T03:50:57;18.33;;;7.00;;
76856;SDS011;66179;44.686;37.628;2023-02-01T03:53:27;17.10;;;6.53;;
76856;SDS011;66179;44.686;37.628;2023-02-01T03:55:55;15.85;;;7.18;;
76856;SDS011;66179;44.686;37.628;2023-02-01T03:58:22;15.23;;;6.05;;
76856;SDS011;66179;44.686;37.628;2023-02-01T04:00:51;18.05;;;6.63;;
76856;SDS011;66179;44.686;37.628;2023-02-01T04:03:23;17.13;;;6.20;;
76856;SDS011;66179;44.686;37.628;2023-02-01T04:05:52;15.27;;;5.93;;
76856;SDS011;66179;44.686;37.628;2023-02-01T04:08:23;13.63;;;5.75;;
76856;SDS011;66179;44.686;37.628;2023-02-01T04:10:50;13.98;;;5.63;;
76856;SDS011;66179;44.686;37.628;2023-02-01T04:13:16;12.60;;;5.72;;
76856;SDS011;66179;44.686;37.628;2023-02-01T04:15:43;13.15;;;5.78;;
76856;SDS011;66179;44.686;37.628;2023-02-01T04:18:11;14.33;;;5.60;;
76856;SDS011;66179;44.686;37.628;2023-02-01T04:20:38;12.80;;;5.28;;
76856;SDS011;66179;44.686;37.628;2023-02-01T04:23:05;13.48;;;5.68;;
76856;SDS011;66179;44.686;37.628;2023-02-01T04:25:32;15.93;;;6.38;;
76856;SDS011;66179;44.686;37.628;2023-02-01T04:27:59;16.15;;;6.47;;
76856;SDS011;66179;44.686;37.628;2023-02-01T04:30:26;17.67;;;6.40;;
76856;SDS011;66179;44.686;37.628;2023-02-01T04:32:52;12.70;;;5.32;;
76856;SDS011;66179;44.686;37.628;2023-02-01T04:35:19;14.32;;;5.93;;
76856;SDS011;66179;44.686;37.628;2023-02-01T04:37:46;14.40;;;5.38;;
76856;SDS011;66179;44.686;37.628;2023-02-01T04:40:13;12.70;;;5.38;;
76856;SDS011;66179;44.686;37.628;2023-02-01T04:42:40;13.17;;;4.93;;
76856;SDS011;66179;44.686;37.628;2023-02-01T04:45:07;12.73;;;5.25;;
76856;SDS011;66179;44.686;37.628;2023-02-01T04:47:35;12.43;;;5.18;;
76856;SDS011;66179;44.686;37.628;2023-02-01T04:50:01;11.48;;;5.03;;
76856;SDS011;66179;44.686;37.628;2023-02-01T04:52:28;13.10;;;5.15;;
76856;SDS011;66179;44.686;37.628;2023-02-01T04:54:55;16.90;;;5.80;;
76856;SDS011;66179;44.686;37.628;2023-02-01T04:57:23;17.45;;;6.47;;
76856;SDS011;66179;44.686;37.628;2023-02-01T04:59:50;15.93;;;7.07;;
76856;SDS011;66179;44.686;37.628;2023-02-01T05:02:17;18.50;;;6.65;;
76856;SDS011;66179;44.686;37.628;2023-02-01T05:04:43;16.27;;;6.18;;
76856;SDS011;66179;44.686;37.628;2023-02-01T05:07:10;18.80;;;6.40;;
76856;SDS011;66179;44.686;37.628;2023-02-01T05:09:37;16.83;;;6.18;;
76856;SDS011;66179;44.686;37.628;2023-02-01T05:12:04;16.52;;;6.20;;
76856;SDS011;66179;44.686;37.628;2023-02-01T05:14:49;15.20;;;6.57;;
76856;SDS011;66179;44.686;37.628;2023-02-01T05:17:16;17.23;;;5.93;;
76856;SDS011;66179;44.686;37.628;2023-02-01T05:19:43;15.73;;;6.23;;
76856;SDS011;66179;44.686;37.628;2023-02-01T05:22:10;16.02;;;5.97;;
76856;SDS011;66179;44.686;37.628;2023-02-01T05:24:37;14.05;;;5.93;;
76856;SDS011;66179;44.686;37.628;2023-02-01T05:27:03;15.13;;;6.18;;
76856;SDS011;66179;44.686;37.628;2023-02-01T05:29:30;16.92;;;6.10;;
76856;SDS011;66179;44.686;37.628;2023-02-01T05:31:57;14.03;;;6.40;;
76856;SDS011;66179;44.686;37.628;2023-02-01T05:34:24;14.80;;;6.38;;
76856;SDS011;66179;44.686;37.628;2023-02-01T05:36:50;18.05;;;6.85;;
76856;SDS011;66179;44.686;37.628;2023-02-01T05:39:17;19.10;;;7.20;;
76856;SDS011;66179;44.686;37.628;2023-02-01T05:41:44;20.95;;;7.65;;
76856;SDS011;66179;44.686;37.628;2023-02-01T05:44:11;18.40;;;7.37;;
76856;SDS011;66179;44.686;37.628;2023-02-01T05:46:38;21.77;;;8.25;;
76856;SDS011;66179;44.686;37.628;2023-02-01T05:49:05;19.80;;;7.65;;
76856;SDS011;66179;44.686;37.628;2023-02-01T05:51:31;18.90;;;7.15;;
76856;SDS011;66179;44.686;37.628;2023-02-01T05:53:59;19.58;;;7.35;;
76856;SDS011;66179;44.686;37.628;2023-02-01T05:56:26;17.50;;;7.40;;
76856;SDS011;66179;44.686;37.628;2023-02-01T05:58:52;16.85;;;6.95;;
76856;SDS011;66179;44.686;37.628;2023-02-01T06:01:19;16.80;;;6.97;;
76856;SDS011;66179;44.686;37.628;2023-02-01T06:03:46;16.88;;;6.80;;
76856;SDS011;66179;44.686;37.628;2023-02-01T06:06:13;16.95;;;7.50;;
76856;SDS011;66179;44.686;37.628;2023-02-01T06:08:39;19.63;;;8.00;;
76856;SDS011;66179;44.686;37.628;2023-02-01T06:11:06;21.60;;;7.82;;
76856;SDS011;66179;44.686;37.628;2023-02-01T06:13:33;22.48;;;8.40;;
76856;SDS011;66179;44.686;37.628;2023-02-01T06:16:04;20.80;;;7.57;;
76856;SDS011;66179;44.686;37.628;2023-02-01T06:18:33;25.52;;;8.35;;
76856;SDS011;66179;44.686;37.628;2023-02-01T06:21:01;19.13;;;8.30;;
76856;SDS011;66179;44.686;37.628;2023-02-01T06:23:29;18.10;;;7.55;;
76856;SDS011;66179;44.686;37.628;2023-02-01T06:26:01;22.20;;;7.80;;
76856;SDS011;66179;44.686;37.628;2023-02-01T06:28:31;20.23;;;7.22;;
76856;SDS011;66179;44.686;37.628;2023-02-01T06:31:02;20.75;;;7.35;;
76856;SDS011;66179;44.686;37.628;2023-02-01T06:33:33;16.57;;;6.77;;
76856;SDS011;66179;44.686;37.628;2023-02-01T06:36:00;16.58;;;6.80;;
76856;SDS011;66179;44.686;37.628;2023-02-01T06:38:30;16.40;;;7.15;;
76856;SDS011;66179;44.686;37.628;2023-02-01T06:40:57;15.52;;;7.70;;
76856;SDS011;66179;44.686;37.628;2023-02-01T06:43:25;17.35;;;7.88;;
76856;SDS011;66179;44.686;37.628;2023-02-01T06:45:53;16.97;;;7.27;;
76856;SDS011;66179;44.686;37.628;2023-02-01T06:48:25;16.73;;;7.13;;
76856;SDS011;66179;44.686;37.628;2023-02-01T06:50:51;17.90;;;7.97;;
76856;SDS011;66179;44.686;37.628;2023-02-01T06:53:18;16.88;;;8.15;;
76856;SDS011;66179;44.686;37.628;2023-02-01T06:58:32;17.27;;;7.43;;
76856;SDS011;66179;44.686;37.628;2023-02-01T07:01:06;18.45;;;7.30;;
76856;SDS011;66179;44.686;37.628;2023-02-01T07:03:34;18.00;;;6.50;;
76856;SDS011;66179;44.686;37.628;2023-02-01T07:06:01;13.98;;;6.20;;
76856;SDS011;66179;44.686;37.628;2023-02-01T07:08:30;14.07;;;6.10;;
76856;SDS011;66179;44.686;37.628;2023-02-01T07:11:05;14.37;;;5.63;;
76856;SDS011;66179;44.686;37.628;2023-02-01T07:13:33;13.05;;;5.13;;
76856;SDS011;66179;44.686;37.628;2023-02-01T07:16:01;13.82;;;5.55;;
76856;SDS011;66179;44.686;37.628;2023-02-01T07:18:30;14.48;;;4.95;;
76856;SDS011;66179;44.686;37.628;2023-02-01T07:20:58;12.48;;;5.05;;
76856;SDS011;66179;44.686;37.628;2023-02-01T07:23:26;11.90;;;4.70;;
76856;SDS011;66179;44.686;37.628;2023-02-01T07:25:54;9.75;;;3.70;;
76856;SDS011;66179;44.686;37.628;2023-02-01T07:28:22;8.63;;;3.80;;
76856;SDS011;66179;44.686;37.628;2023-02-01T07:30:49;10.48;;;3.60;;
76856;SDS011;66179;44.686;37.628;2023-02-01T07:33:20;7.85;;;3.55;;
76856;SDS011;66179;44.686;37.628;2023-02-01T07:35:49;8.10;;;3.23;;
76856;SDS011;66179;44.686;37.628;2023-02-01T07:38:17;8.38;;;3.00;;
76856;SDS011;66179;44.686;37.628;2023-02-01T07:40:45;6.78;;;2.85;;
76856;SDS011;66179;44.686;37.628;2023-02-01T07:43:12;6.85;;;2.53;;
76856;SDS011;66179;44.686;37.628;2023-02-01T07:45:40;6.50;;;2.78;;
76856;SDS011;66179;44.686;37.628;2023-02-01T07:48:07;6.53;;;2.87;;
76856;SDS011;66179;44.686;37.628;2023-02-01T07:50:34;7.47;;;2.72;;
76856;SDS011;66179;44.686;37.628;2023-02-01T07:53:01;7.13;;;2.90;;
76856;SDS011;66179;44.686;37.628;2023-02-01T07:55:27;10.45;;;2.83;;
76856;SDS011;66179;44.686;37.628;2023-02-01T07:57:58;6.65;;;2.95;;
76856;SDS011;66179;44.686;37.628;2023-02-01T08:00:25;6.57;;;2.80;;
76856;SDS011;66179;44.686;37.628;2023-02-01T08:03:11;7.18;;;3.20;;
76856;SDS011;66179;44.686;37.628;2023-02-01T08:05:37;7.78;;;3.03;;
76856;SDS011;66179;44.686;37.628;2023-02-01T08:08:04;7.93;;;2.95;;
76856;SDS011;66179;44.686;37.628;2023-02-01T08:10:32;7.25;;;2.83;;
76856;SDS011;66179;44.686;37.628;2023-02-01T08:13:01;7.13;;;2.63;;
76856;SDS011;66179;44.686;37.628;2023-02-01T08:15:28;6.57;;;2.70;;
76856;SDS011;66179;44.686;37.628;2023-02-01T08:17:56;7.50;;;3.20;;
76856;SDS011;66179;44.686;37.628;2023-02-01T08:20:24;8.82;;;3.28;;
76856;SDS011;66179;44.686;37.628;2023-02-01T08:22:54;6.82;;;2.88;;
76856;SDS011;66179;44.686;37.628;2023-02-01T08:25:22;8.23;;;3.03;;
76856;SDS011;66179;44.686;37.628;2023-02-01T08:27:49;6.80;;;2.83;;
76856;SDS011;66179;44.686;37.628;2023-02-01T08:30:17;6.47;;;2.85;;
76856;SDS011;66179;44.686;37.628;2023-02-01T08:32:44;5.93;;;2.60;;
76856;SDS011;66179;44.686;37.628;2023-02-01T08:35:11;6.55;;;2.95;;
76856;SDS011;66179;44.686;37.628;2023-02-01T08:37:37;6.13;;;2.70;;
76856;SDS011;66179;44.686;37.628;2023-02-01T08:40:04;6.78;;;2.90;;
76856;SDS011;66179;44.686;37.628;2023-02-01T08:42:32;6.30;;;2.88;;
76856;SDS011;66179;44.686;37.628;2023-02-01T08:45:21;6.45;;;2.90;;
76856;SDS011;66179;44.686;37.628;2023-02-01T08:47:51;6.10;;;2.50;;
76856;SDS011;66179;44.686;37.628;2023-02-01T08:50:19;8.47;;;3.20;;
76856;SDS011;66179;44.686;37.628;2023-02-01T08:52:47;7.47;;;3.38;;
76856;SDS011;66179;44.686;37.628;2023-02-01T08:55:14;7.07;;;3.20;;
76856;SDS011;66179;44.686;37.628;2023-02-01T08:57:41;6.00;;;2.58;;
76856;SDS011;66179;44.686;37.628;2023-02-01T09:00:09;6.97;;;2.63;;
76856;SDS011;66179;44.686;37.628;2023-02-01T09:02:39;9.17;;;3.30;;
76856;SDS011;66179;44.686;37.628;2023-02-01T09:05:06;13.25;;;4.07;;
76856;SDS011;66179;44.686;37.628;2023-02-01T09:07:33;10.13;;;3.60;;
76856;SDS011;66179;44.686;37.628;2023-02-01T09:10:01;9.38;;;3.20;;
76856;SDS011;66179;44.686;37.628;2023-02-01T09:12:29;8.73;;;3.30;;
76856;SDS011;66179;44.686;37.628;2023-02-01T09:14:58;6.60;;;2.73;;
76856;SDS011;66179;44.686;37.628;2023-02-01T09:17:25;6.57;;;2.20;;
76856;SDS011;66179;44.686;37.628;2023-02-01T09:19:53;5.65;;;2.33;;
76856;SDS011;66179;44.686;37.628;2023-02-01T09:22:20;7.50;;;2.78;;
76856;SDS011;66179;44.686;37.628;2023-02-01T09:24:47;8.82;;;3.30;;
76856;SDS011;66179;44.686;37.628;2023-02-01T09:27:13;7.83;;;3.23;;
76856;SDS011;66179;44.686;37.628;2023-02-01T09:29:40;6.35;;;2.78;;
76856;SDS011;66179;44.686;37.628;2023-02-01T09:32:08;6.20;;;2.50;;
76856;SDS011;66179;44.686;37.628;2023-02-01T09:34:34;7.45;;;2.75;;
76856;SDS011;66179;44.686;37.628;2023-02-01T09:37:02;5.70;;;2.50;;
76856;SDS011;66179;44.686;37.628;2023-02-01T09:39:28;6.70;;;3.50;;
76856;SDS011;66179;44.686;37.628;2023-02-01T09:47:23;6.55;;;2.97;;
76856;SDS011;66179;44.686;37.628;2023-02-01T09:49:52;7.90;;;2.95;;
76856;SDS011;66179;44.686;37.628;2023-02-01T09:52:27;6.50;;;2.63;;
76856;SDS011;66179;44.686;37.628;2023-02-01T09:55:04;8.55;;;3.42;;
76856;SDS011;66179;44.686;37.628;2023-02-01T09:57:40;7.22;;;3.10;;
76856;SDS011;66179;44.686;37.628;2023-02-01T10:00:23;7.22;;;2.80;;
76856;SDS011;66179;44.686;37.628;2023-02-01T10:02:54;6.25;;;2.50;;
76856;SDS011;66179;44.686;37.628;2023-02-01T10:06:00;6.03;;;2.60;;
76856;SDS011;66179;44.686;37.628;2023-02-01T10:11:54;7.15;;;2.30;;
76856;SDS011;66179;44.686;37.628;2023-02-01T10:17:25;5.78;;;2.58;;
76856;SDS011;66179;44.686;37.628;2023-02-01T10:23:06;5.38;;;2.33;;
76856;SDS011;66179;44.686;37.628;2023-02-01T10:28:14;5.80;;;2.40;;
76856;SDS011;66179;44.686;37.628;2023-02-01T10:30:44;5.80;;;2.38;;
76856;SDS011;66179;44.686;37.628;2023-02-01T10:33:18;5.70;;;2.30;;
76856;SDS011;66179;44.686;37.628;2023-02-01T10:38:47;5.43;;;2.25;;
76856;SDS011;66179;44.686;37.628;2023-02-01T10:41:18;5.70;;;2.33;;
76856;SDS011;66179;44.686;37.628;2023-02-01T10:43:48;5.53;;;2.30;;
76856;SDS011;66179;44.686;37.628;2023-02-01T10:46:19;6.63;;;2.37;;
76856;SDS011;66179;44.686;37.628;2023-02-01T10:48:47;5.85;;;2.53;;
76856;SDS011;66179;44.686;37.628;2023-02-01T10:51:26;7.20;;;2.53;;
76856;SDS011;66179;44.686;37.628;2023-02-01T10:53:58;6.03;;;2.33;;
76856;SDS011;66179;44.686;37.628;2023-02-01T10:56:29;5.43;;;2.10;;
76856;SDS011;66179;44.686;37.628;2023-02-01T10:59:01;5.93;;;2.20;;
76856;SDS011;66179;44.686;37.628;2023-02-01T11:01:31;5.38;;;2.10;;
76856;SDS011;66179;44.686;37.628;2023-02-01T11:04:02;6.15;;;2.17;;
76856;SDS011;66179;44.686;37.628;2023-02-01T11:06:32;5.72;;;2.08;;
76856;SDS011;66179;44.686;37.628;2023-02-01T11:11:32;6.53;;;2.10;;
76856;SDS011;66179;44.686;37.628;2023-02-01T11:14:01;8.10;;;2.38;;
76856;SDS011;66179;44.686;37.628;2023-02-01T11:16:40;6.05;;;2.60;;
76856;SDS011;66179;44.686;37.628;2023-02-01T11:19:06;7.25;;;2.72;;
76856;SDS011;66179;44.686;37.628;2023-02-01T11:21:33;5.72;;;2.28;;
76856;SDS011;66179;44.686;37.628;2023-02-01T11:24:03;5.60;;;2.27;;
76856;SDS011;66179;44.686;37.628;2023-02-01T11:26:32;5.88;;;2.45;;
76856;SDS011;66179;44.686;37.628;2023-02-01T11:31:30;5.60;;;2.13;;
76856;SDS011;66179;44.686;37.628;2023-02-01T11:34:16;6.43;;;2.40;;
76856;SDS011;66179;44.686;37.628;2023-02-01T11:36:47;15.43;;;7.93;;
76856;SDS011;66179;44.686;37.628;2023-02-01T11:39:20;21.10;;;10.95;;
76856;SDS011;66179;44.686;37.628;2023-02-01T11:47:25;6.70;;;2.70;;
76856;SDS011;66179;44.686;37.628;2023-02-01T11:50:12;7.57;;;2.63;;
76856;SDS011;66179;44.686;37.628;2023-02-01T11:58:42;9.73;;;4.35;;
76856;SDS011;66179;44.686;37.628;2023-02-01T12:06:56;13.02;;;6.32;;
76856;SDS011;66179;44.686;37.628;2023-02-01T12:12:22;28.38;;;14.35;;
76856;SDS011;66179;44.686;37.628;2023-02-01T12:15:05;26.38;;;13.32;;
76856;SDS011;66179;44.686;37.628;2023-02-01T12:23:19;15.20;;;8.55;;
76856;SDS011;66179;44.686;37.628;2023-02-01T12:36:51;27.60;;;15.55;;
76856;SDS011;66179;44.686;37.628;2023-02-01T12:39:41;25.38;;;13.65;;
76856;SDS011;66179;44.686;37.628;2023-02-01T12:42:40;30.60;;;17.23;;
76856;SDS011;66179;44.686;37.628;2023-02-01T12:45:19;23.07;;;13.97;;
76856;SDS011;66179;44.686;37.628;2023-02-01T12:47:57;18.85;;;10.10;;
76856;SDS011;66179;44.686;37.628;2023-02-01T12:50:46;22.73;;;10.55;;
76856;SDS011;66179;44.686;37.628;2023-02-01T12:55:52;20.48;;;10.93;;
76856;SDS011;66179;44.686;37.628;2023-02-01T12:58:30;24.40;;;11.97;;
76856;SDS011;66179;44.686;37.628;2023-02-01T13:01:13;25.05;;;11.15;;
76856;SDS011;66179;44.686;37.628;2023-02-01T13:06:29;23.40;;;10.93;;
76856;SDS011;66179;44.686;37.628;2023-02-01T13:09:05;23.05;;;11.80;;
76856;SDS011;66179;44.686;37.628;2023-02-01T13:11:45;21.13;;;10.17;;
76856;SDS011;66179;44.686;37.628;2023-02-01T13:17:05;21.33;;;10.60;;
76856;SDS011;66179;44.686;37.628;2023-02-01T13:22:43;20.55;;;10.88;;
76856;SDS011;66179;44.686;37.628;2023-02-01T13:27:59;25.88;;;12.65;;
76856;SDS011;66179;44.686;37.628;2023-02-01T13:30:33;23.08;;;11.35;;
76856;SDS011;66179;44.686;37.628;2023-02-01T13:41:28;21.60;;;10.23;;
76856;SDS011;66179;44.686;37.628;2023-02-01T13:44:08;20.65;;;9.80;;
76856;SDS011;66179;44.686;37.628;2023-02-01T13:46:43;25.55;;;11.60;;
76856;SDS011;66179;44.686;37.628;2023-02-01T13:49:23;28.88;;;14.10;;
76856;SDS011;66179;44.686;37.628;2023-02-01T13:51:53;27.13;;;13.90;;
76856;SDS011;66179;44.686;37.628;2023-02-01T13:54:30;22.42;;;10.85;;
76856;SDS011;66179;44.686;37.628;2023-02-01T13:56:58;25.40;;;12.52;;
76856;SDS011;66179;44.686;37.628;2023-02-01T13:59:36;29.08;;;14.27;;
76856;SDS011;66179;44.686;37.628;2023-02-01T14:05:07;26.73;;;12.80;;
76856;SDS011;66179;44.686;37.628;2023-02-01T14:13:32;20.23;;;10.23;;
76856;SDS011;66179;44.686;37.628;2023-02-01T14:21:21;24.85;;;12.43;;
76856;SDS011;66179;44.686;37.628;2023-02-01T14:31:52;24.57;;;13.00;;
76856;SDS011;66179;44.686;37.628;2023-02-01T14:47:49;26.20;;;14.27;;
76856;SDS011;66179;44.686;37.628;2023-02-01T14:50:34;21.17;;;11.30;;
76856;SDS011;66179;44.686;37.628;2023-02-01T14:53:21;21.10;;;9.57;;
76856;SDS011;66179;44.686;37.628;2023-02-01T15:04:08;19.90;;;9.80;;
76856;SDS011;66179;44.686;37.628;2023-02-01T15:06:40;19.27;;;9.43;;
76856;SDS011;66179;44.686;37.628;2023-02-01T15:14:38;21.77;;;9.23;;
76856;SDS011;66179;44.686;37.628;2023-02-01T15:17:18;19.40;;;9.05;;
76856;SDS011;66179;44.686;37.628;2023-02-01T15:19:52;19.52;;;8.70;;
76856;SDS011;66179;44.686;37.628;2023-02-01T15:22:28;20.90;;;9.05;;
76856;SDS011;66179;44.686;37.628;2023-02-01T15:24:57;17.67;;;8.50;;
76856;SDS011;66179;44.686;37.628;2023-02-01T15:27:28;18.35;;;8.75;;
76856;SDS011;66179;44.686;37.628;2023-02-01T15:30:06;21.90;;;9.35;;
76856;SDS011;66179;44.686;37.628;2023-02-01T15:32:36;22.05;;;9.85;;
76856;SDS011;66179;44.686;37.628;2023-02-01T15:35:05;20.33;;;8.98;;
76856;SDS011;66179;44.686;37.628;2023-02-01T15:37:52;23.00;;;9.50;;
76856;SDS011;66179;44.686;37.628;2023-02-01T15:40:20;23.70;;;10.27;;
76856;SDS011;66179;44.686;37.628;2023-02-01T15:42:54;24.08;;;11.23;;
76856;SDS011;66179;44.686;37.628;2023-02-01T15:45:28;27.15;;;10.68;;
76856;SDS011;66179;44.686;37.628;2023-02-01T15:47:58;23.08;;;10.20;;
76856;SDS011;66179;44.686;37.628;2023-02-01T15:50:26;24.80;;;11.13;;
76856;SDS011;66179;44.686;37.628;2023-02-01T15:52:56;23.25;;;10.70;;
76856;SDS011;66179;44.686;37.628;2023-02-01T15:55:35;24.17;;;10.07;;
76856;SDS011;66179;44.686;37.628;2023-02-01T15:58:05;24.10;;;9.82;;
76856;SDS011;66179;44.686;37.628;2023-02-01T16:00:53;22.42;;;9.52;;
76856;SDS011;66179;44.686;37.628;2023-02-01T16:03:28;22.73;;;9.87;;
76856;SDS011;66179;44.686;37.628;2023-02-01T16:06:05;24.80;;;11.35;;
76856;SDS011;66179;44.686;37.628;2023-02-01T16:08:33;20.92;;;9.90;;
76856;SDS011;66179;44.686;37.628;2023-02-01T16:13:35;137.07;;;49.53;;
76856;SDS011;66179;44.686;37.628;2023-02-01T16:16:02;49.50;;;25.00;;
76856;SDS011;66179;44.686;37.628;2023-02-01T16:18:33;34.47;;;19.52;;
76856;SDS011;66179;44.686;37.628;2023-02-01T16:21:00;20.55;;;9.93;;
76856;SDS011;66179;44.686;37.628;2023-02-01T16:23:28;23.30;;;10.93;;
76856;SDS011;66179;44.686;37.628;2023-02-01T16:25:55;30.55;;;15.73;;
76856;SDS011;66179;44.686;37.628;2023-02-01T16:28:22;21.03;;;11.13;;
76856;SDS011;66179;44.686;37.628;2023-02-01T16:30:48;22.40;;;10.02;;
76856;SDS011;66179;44.686;37.628;2023-02-01T16:33:16;27.98;;;13.35;;
76856;SDS011;66179;44.686;37.628;2023-02-01T16:35:48;24.65;;;12.05;;
76856;SDS011;66179;44.686;37.628;2023-02-01T16:38:17;25.90;;;12.05;;
76856;SDS011;66179;44.686;37.628;2023-02-01T16:40:48;20.57;;;9.80;;
76856;SDS011;66179;44.686;37.628;2023-02-01T16:43:22;21.30;;;9.43;;
76856;SDS011;66179;44.686;37.628;2023-02-01T16:45:52;20.70;;;8.90;;
76856;SDS011;66179;44.686;37.628;2023-02-01T16:48:24;19.95;;;8.93;;
76856;SDS011;66179;44.686;37.628;2023-02-01T16:50:58;19.92;;;8.98;;
76856;SDS011;66179;44.686;37.628;2023-02-01T16:53:27;22.53;;;9.57;;
76856;SDS011;66179;44.686;37.628;2023-02-01T16:55:56;21.40;;;9.18;;
76856;SDS011;66179;44.686;37.628;2023-02-01T16:58:26;21.63;;;9.10;;
76856;SDS011;66179;44.686;37.628;2023-02-01T17:00:53;20.75;;;9.55;;
76856;SDS011;66179;44.686;37.628;2023-02-01T17:03:21;22.60;;;9.52;;
76856;SDS011;66179;44.686;37.628;2023-02-01T17:05:49;20.40;;;9.43;;
76856;SDS011;66179;44.686;37.628;2023-02-01T17:08:26;21.02;;;8.77;;
76856;SDS011;66179;44.686;37.628;2023-02-01T17:10:55;21.55;;;9.30;;
76856;SDS011;66179;44.686;37.628;2023-02-01T17:13:22;20.15;;;9.40;;
76856;SDS011;66179;44.686;37.628;2023-02-01T17:15:53;23.30;;;9.60;;
76856;SDS011;66179;44.686;37.628;2023-02-01T17:18:24;22.67;;;9.23;;
76856;SDS011;66179;44.686;37.628;2023-02-01T17:21:00;20.67;;;8.88;;
76856;SDS011;66179;44.686;37.628;2023-02-01T17:23:28;22.23;;;10.40;;
76856;SDS011;66179;44.686;37.628;2023-02-01T17:25:56;20.55;;;9.00;;
76856;SDS011;66179;44.686;37.628;2023-02-01T17:28:23;21.42;;;10.00;;
76856;SDS011;66179;44.686;37.628;2023-02-01T17:30:50;22.43;;;10.43;;
76856;SDS011;66179;44.686;37.628;2023-02-01T17:35:49;23.52;;;10.20;;
76856;SDS011;66179;44.686;37.628;2023-02-01T17:38:16;24.13;;;11.02;;
76856;SDS011;66179;44.686;37.628;2023-02-01T17:40:43;22.48;;;10.27;;
76856;SDS011;66179;44.686;37.628;2023-02-01T17:43:20;22.27;;;9.63;;
76856;SDS011;66179;44.686;37.628;2023-02-01T17:48:25;23.35;;;10.52;;